sensor_id;sensor_type;location;lat;lon;timestamp;temperature;humidity
42187;DHT22;27858;51.414;0.018;2022-07-29T00:01:02;17.60;99.90
42187;DHT22;27858;51.414;0.018;2022-07-29T00:03:28;17.60;99.90
42187;DHT22;27858;51.414;0.018;2022-07-29T00:05:55;17.60;99.90
42187;DHT22;27858;51.414;0.018;2022-07-29T00:08:22;17.60;99.90
42187;DHT22;27858;51.414;0.018;2022-07-29T00:10:50;17.60;99.90
42187;DHT22;27858;51.414;0.018;2022-07-29T00:13:17;17.60;99.90
42187;DHT22;27858;51.414;0.018;2022-07-29T00:15:57;17.60;99.90
42187;DHT22;27858;51.414;0.018;2022-07-29T00:18:30;17.60;99.90
42187;DHT22;27858;51.414;0.018;2022-07-29T00:20:57;17.60;99.90
42187;DHT22;27858;51.414;0.018;2022-07-29T00:23:24;17.50;99.90
42187;DHT22;27858;51.414;0.018;2022-07-29T00:25:51;17.60;99.90
42187;DHT22;27858;51.414;0.018;2022-07-29T00:28:17;17.60;99.90
42187;DHT22;27858;51.414;0.018;2022-07-29T00:30:44;17.50;99.90
42187;DHT22;27858;51.414;0.018;2022-07-29T00:33:11;17.50;99.90
42187;DHT22;27858;51.414;0.018;2022-07-29T00:35:38;17.50;99.90
42187;DHT22;27858;51.414;0.018;2022-07-29T00:38:16;17.60;99.90
42187;DHT22;27858;51.414;0.018;2022-07-29T00:40:44;17.60;99.90
42187;DHT22;27858;51.414;0.018;2022-07-29T00:43:12;17.60;99.90
42187;DHT22;27858;51.414;0.018;2022-07-29T00:45:43;17.50;99.90
42187;DHT22;27858;51.414;0.018;2022-07-29T00:48:10;17.50;99.90
42187;DHT22;27858;51.414;0.018;2022-07-29T00:50:37;17.50;99.90
42187;DHT22;27858;51.414;0.018;2022-07-29T00:53:06;17.50;99.90
42187;DHT22;27858;51.414;0.018;2022-07-29T00:55:33;17.50;99.90
42187;DHT22;27858;51.414;0.018;2022-07-29T00:58:00;17.60;99.90
42187;DHT22;27858;51.414;0.018;2022-07-29T01:00:28;17.50;99.90
42187;DHT22;27858;51.414;0.018;2022-07-29T01:02:55;17.50;99.90
42187;DHT22;27858;51.414;0.018;2022-07-29T01:05:24;17.50;1.00
42187;DHT22;27858;51.414;0.018;2022-07-29T01:08:14;17.40;1.00
42187;DHT22;27858;51.414;0.018;2022-07-29T01:10:42;17.50;1.00
42187;DHT22;27858;51.414;0.018;2022-07-29T01:13:10;17.50;1.00
42187;DHT22;27858;51.414;0.018;2022-07-29T01:15:46;17.50;99.90
42187;DHT22;27858;51.414;0.018;2022-07-29T01:18:24;17.50;1.00
42187;DHT22;27858;51.414;0.018;2022-07-29T01:21:50;17.50;99.90
42187;DHT22;27858;51.414;0.018;2022-07-29T01:23:57;17.50;99.90
42187;DHT22;27858;51.414;0.018;2022-07-29T01:32:00;17.40;1.00
42187;DHT22;27858;51.414;0.018;2022-07-29T01:34:48;17.40;1.00
42187;DHT22;27858;51.414;0.018;2022-07-29T01:37:24;17.30;1.00
42187;DHT22;27858;51.414;0.018;2022-07-29T01:39:55;17.40;1.00
42187;DHT22;27858;51.414;0.018;2022-07-29T01:42:39;17.30;1.00
42187;DHT22;27858;51.414;0.018;2022-07-29T01:45:19;17.30;1.00
42187;DHT22;27858;51.414;0.018;2022-07-29T01:48:06;17.30;1.00
42187;DHT22;27858;51.414;0.018;2022-07-29T01:50:45;17.30;1.00
42187;DHT22;27858;51.414;0.018;2022-07-29T01:53:20;17.30;1.00
42187;DHT22;27858;51.414;0.018;2022-07-29T01:55:48;17.40;1.00
42187;DHT22;27858;51.414;0.018;2022-07-29T01:58:18;17.30;1.00
42187;DHT22;27858;51.414;0.018;2022-07-29T02:00:46;17.30;1.00
42187;DHT22;27858;51.414;0.018;2022-07-29T02:03:15;17.30;1.00
42187;DHT22;27858;51.414;0.018;2022-07-29T02:05:46;17.30;1.00
42187;DHT22;27858;51.414;0.018;2022-07-29T02:08:16;17.20;1.00
42187;DHT22;27858;51.414;0.018;2022-07-29T02:10:45;17.30;1.00
42187;DHT22;27858;51.414;0.018;2022-07-29T02:13:15;17.20;1.00
42187;DHT22;27858;51.414;0.018;2022-07-29T02:15:44;17.10;1.00
42187;DHT22;27858;51.414;0.018;2022-07-29T02:18:15;17.10;1.00
42187;DHT22;27858;51.414;0.018;2022-07-29T02:20:49;17.10;1.00
42187;DHT22;27858;51.414;0.018;2022-07-29T02:23:22;17.10;1.00
42187;DHT22;27858;51.414;0.018;2022-07-29T02:25:51;17.00;1.00
42187;DHT22;27858;51.414;0.018;2022-07-29T02:28:20;17.10;1.00
42187;DHT22;27858;51.414;0.018;2022-07-29T02:30:50;17.00;1.00
42187;DHT22;27858;51.414;0.018;2022-07-29T02:33:19;17.00;1.00
42187;DHT22;27858;51.414;0.018;2022-07-29T02:35:47;16.90;1.00
42187;DHT22;27858;51.414;0.018;2022-07-29T02:38:15;16.80;1.00
42187;DHT22;27858;51.414;0.018;2022-07-29T02:41:06;16.70;1.00
42187;DHT22;27858;51.414;0.018;2022-07-29T02:43:35;16.60;1.00
42187;DHT22;27858;51.414;0.018;2022-07-29T02:46:05;16.50;1.00
42187;DHT22;27858;51.414;0.018;2022-07-29T02:51:46;16.30;1.00
42187;DHT22;27858;51.414;0.018;2022-07-29T02:54:22;16.30;1.00
42187;DHT22;27858;51.414;0.018;2022-07-29T02:56:51;16.30;1.00
42187;DHT22;27858;51.414;0.018;2022-07-29T02:59:23;16.20;1.00
42187;DHT22;27858;51.414;0.018;2022-07-29T03:01:52;16.10;1.00
42187;DHT22;27858;51.414;0.018;2022-07-29T03:04:23;16.10;1.00
42187;DHT22;27858;51.414;0.018;2022-07-29T03:06:51;16.20;1.00
42187;DHT22;27858;51.414;0.018;2022-07-29T03:09:19;16.20;1.00
42187;DHT22;27858;51.414;0.018;2022-07-29T03:11:46;16.20;1.00
42187;DHT22;27858;51.414;0.018;2022-07-29T03:14:18;16.10;1.00
42187;DHT22;27858;51.414;0.018;2022-07-29T03:16:46;16.10;1.00
42187;DHT22;27858;51.414;0.018;2022-07-29T03:19:13;16.20;1.00
42187;DHT22;27858;51.414;0.018;2022-07-29T03:21:41;16.20;1.00
42187;DHT22;27858;51.414;0.018;2022-07-29T03:24:07;16.10;1.00
42187;DHT22;27858;51.414;0.018;2022-07-29T03:26:36;16.00;1.00
42187;DHT22;27858;51.414;0.018;2022-07-29T03:29:03;16.00;1.00
42187;DHT22;27858;51.414;0.018;2022-07-29T03:31:30;16.00;1.00
42187;DHT22;27858;51.414;0.018;2022-07-29T03:33:59;16.00;1.00
42187;DHT22;27858;51.414;0.018;2022-07-29T03:36:26;16.00;1.00
42187;DHT22;27858;51.414;0.018;2022-07-29T03:38:53;15.80;1.00
42187;DHT22;27858;51.414;0.018;2022-07-29T03:41:22;15.80;1.00
42187;DHT22;27858;51.414;0.018;2022-07-29T03:43:51;15.70;1.00
42187;DHT22;27858;51.414;0.018;2022-07-29T03:46:21;15.70;1.00
42187;DHT22;27858;51.414;0.018;2022-07-29T03:48:52;15.70;1.00
42187;DHT22;27858;51.414;0.018;2022-07-29T03:51:20;15.80;1.00
42187;DHT22;27858;51.414;0.018;2022-07-29T03:54:00;15.80;1.00
42187;DHT22;27858;51.414;0.018;2022-07-29T03:56:38;15.70;1.00
42187;DHT22;27858;51.414;0.018;2022-07-29T03:59:07;15.70;1.00
42187;DHT22;27858;51.414;0.018;2022-07-29T04:01:34;15.70;1.00
42187;DHT22;27858;51.414;0.018;2022-07-29T04:04:02;15.60;1.00
42187;DHT22;27858;51.414;0.018;2022-07-29T04:06:43;15.60;1.00
42187;DHT22;27858;51.414;0.018;2022-07-29T04:09:12;15.50;1.00
42187;DHT22;27858;51.414;0.018;2022-07-29T04:11:40;15.60;1.00
42187;DHT22;27858;51.414;0.018;2022-07-29T04:14:26;15.60;1.00
42187;DHT22;27858;51.414;0.018;2022-07-29T04:16:53;15.60;1.00
42187;DHT22;27858;51.414;0.018;2022-07-29T04:19:20;15.60;1.00
42187;DHT22;27858;51.414;0.018;2022-07-29T04:21:47;15.60;1.00
42187;DHT22;27858;51.414;0.018;2022-07-29T04:24:14;15.60;1.00
42187;DHT22;27858;51.414;0.018;2022-07-29T04:26:41;15.60;1.00
42187;DHT22;27858;51.414;0.018;2022-07-29T04:29:08;15.50;1.00
42187;DHT22;27858;51.414;0.018;2022-07-29T04:31:35;15.50;1.00
42187;DHT22;27858;51.414;0.018;2022-07-29T04:34:02;15.50;1.00
42187;DHT22;27858;51.414;0.018;2022-07-29T04:36:29;15.40;1.00
42187;DHT22;27858;51.414;0.018;2022-07-29T04:38:55;15.30;1.00
42187;DHT22;27858;51.414;0.018;2022-07-29T04:41:22;15.30;1.00
42187;DHT22;27858;51.414;0.018;2022-07-29T04:43:58;15.30;1.00
42187;DHT22;27858;51.414;0.018;2022-07-29T04:46:27;15.30;1.00
42187;DHT22;27858;51.414;0.018;2022-07-29T04:48:54;15.20;1.00
42187;DHT22;27858;51.414;0.018;2022-07-29T04:51:21;15.20;1.00
42187;DHT22;27858;51.414;0.018;2022-07-29T04:53:48;15.20;1.00
42187;DHT22;27858;51.414;0.018;2022-07-29T04:56:15;15.30;1.00
42187;DHT22;27858;51.414;0.018;2022-07-29T04:58:42;15.20;1.00
42187;DHT22;27858;51.414;0.018;2022-07-29T05:01:09;15.20;1.00
42187;DHT22;27858;51.414;0.018;2022-07-29T05:03:35;15.10;1.00
42187;DHT22;27858;51.414;0.018;2022-07-29T05:06:02;15.10;1.00
42187;DHT22;27858;51.414;0.018;2022-07-29T05:08:29;15.20;1.00
42187;DHT22;27858;51.414;0.018;2022-07-29T05:10:56;15.20;1.00
42187;DHT22;27858;51.414;0.018;2022-07-29T05:13:23;15.20;1.00
42187;DHT22;27858;51.414;0.018;2022-07-29T05:15:50;15.30;1.00
42187;DHT22;27858;51.414;0.018;2022-07-29T05:18:17;15.30;1.00
42187;DHT22;27858;51.414;0.018;2022-07-29T05:20:43;15.40;1.00
42187;DHT22;27858;51.414;0.018;2022-07-29T05:23:10;15.40;1.00
42187;DHT22;27858;51.414;0.018;2022-07-29T05:25:39;15.50;1.00
42187;DHT22;27858;51.414;0.018;2022-07-29T05:28:10;15.60;1.00
42187;DHT22;27858;51.414;0.018;2022-07-29T05:30:37;15.80;1.00
42187;DHT22;27858;51.414;0.018;2022-07-29T05:33:04;15.80;1.00
42187;DHT22;27858;51.414;0.018;2022-07-29T05:35:31;15.90;1.00
42187;DHT22;27858;51.414;0.018;2022-07-29T05:37:58;16.10;1.00
42187;DHT22;27858;51.414;0.018;2022-07-29T05:40:25;16.20;1.00
42187;DHT22;27858;51.414;0.018;2022-07-29T05:42:52;16.30;1.00
42187;DHT22;27858;51.414;0.018;2022-07-29T05:45:18;16.40;1.00
42187;DHT22;27858;51.414;0.018;2022-07-29T05:47:45;16.50;1.00
42187;DHT22;27858;51.414;0.018;2022-07-29T05:50:12;16.60;1.00
42187;DHT22;27858;51.414;0.018;2022-07-29T05:52:39;16.70;1.00
42187;DHT22;27858;51.414;0.018;2022-07-29T05:55:06;16.90;1.00
42187;DHT22;27858;51.414;0.018;2022-07-29T05:57:33;17.00;1.00
42187;DHT22;27858;51.414;0.018;2022-07-29T06:00:00;17.10;1.00
42187;DHT22;27858;51.414;0.018;2022-07-29T06:02:27;17.10;1.00
42187;DHT22;27858;51.414;0.018;2022-07-29T06:04:54;17.10;1.00
42187;DHT22;27858;51.414;0.018;2022-07-29T06:07:21;17.20;1.00
42187;DHT22;27858;51.414;0.018;2022-07-29T06:09:48;17.40;1.00
42187;DHT22;27858;51.414;0.018;2022-07-29T06:12:15;17.40;1.00
42187;DHT22;27858;51.414;0.018;2022-07-29T06:14:42;17.50;1.00
42187;DHT22;27858;51.414;0.018;2022-07-29T06:17:09;17.60;1.00
42187;DHT22;27858;51.414;0.018;2022-07-29T06:19:38;17.70;1.00
42187;DHT22;27858;51.414;0.018;2022-07-29T06:22:04;17.80;1.00
42187;DHT22;27858;51.414;0.018;2022-07-29T06:24:31;17.90;1.00
42187;DHT22;27858;51.414;0.018;2022-07-29T06:26:58;17.90;1.00
42187;DHT22;27858;51.414;0.018;2022-07-29T06:29:25;18.00;1.00
42187;DHT22;27858;51.414;0.018;2022-07-29T06:31:52;18.00;1.00
42187;DHT22;27858;51.414;0.018;2022-07-29T06:34:19;18.30;1.00
42187;DHT22;27858;51.414;0.018;2022-07-29T06:36:46;18.40;1.00
42187;DHT22;27858;51.414;0.018;2022-07-29T06:39:14;18.50;1.00
42187;DHT22;27858;51.414;0.018;2022-07-29T06:41:41;18.70;1.00
42187;DHT22;27858;51.414;0.018;2022-07-29T06:44:08;18.80;1.00
42187;DHT22;27858;51.414;0.018;2022-07-29T06:46:35;18.80;1.00
42187;DHT22;27858;51.414;0.018;2022-07-29T06:49:03;18.80;1.00
42187;DHT22;27858;51.414;0.018;2022-07-29T06:51:30;19.00;1.00
42187;DHT22;27858;51.414;0.018;2022-07-29T06:53:57;19.00;1.00
42187;DHT22;27858;51.414;0.018;2022-07-29T06:56:29;19.00;1.00
42187;DHT22;27858;51.414;0.018;2022-07-29T06:58:57;19.00;1.00
42187;DHT22;27858;51.414;0.018;2022-07-29T07:01:24;19.10;1.00
42187;DHT22;27858;51.414;0.018;2022-07-29T07:03:50;19.20;1.00
42187;DHT22;27858;51.414;0.018;2022-07-29T07:06:17;19.30;1.00
42187;DHT22;27858;51.414;0.018;2022-07-29T07:08:44;19.40;1.00
42187;DHT22;27858;51.414;0.018;2022-07-29T07:11:11;19.40;1.00
42187;DHT22;27858;51.414;0.018;2022-07-29T07:13:38;19.50;1.00
42187;DHT22;27858;51.414;0.018;2022-07-29T07:16:05;19.60;1.00
42187;DHT22;27858;51.414;0.018;2022-07-29T07:18:32;19.70;1.00
42187;DHT22;27858;51.414;0.018;2022-07-29T07:20:59;19.60;1.00
42187;DHT22;27858;51.414;0.018;2022-07-29T07:23:25;19.60;1.00
42187;DHT22;27858;51.414;0.018;2022-07-29T07:25:52;19.50;1.00
42187;DHT22;27858;51.414;0.018;2022-07-29T07:28:19;19.60;1.00
42187;DHT22;27858;51.414;0.018;2022-07-29T07:30:50;19.50;1.00
42187;DHT22;27858;51.414;0.018;2022-07-29T07:33:18;19.40;1.00
42187;DHT22;27858;51.414;0.018;2022-07-29T07:35:44;19.40;1.00
42187;DHT22;27858;51.414;0.018;2022-07-29T07:38:11;19.30;1.00
42187;DHT22;27858;51.414;0.018;2022-07-29T07:40:38;19.30;1.00
42187;DHT22;27858;51.414;0.018;2022-07-29T07:43:05;19.40;1.00
42187;DHT22;27858;51.414;0.018;2022-07-29T07:45:32;19.50;1.00
42187;DHT22;27858;51.414;0.018;2022-07-29T07:47:59;19.60;1.00
42187;DHT22;27858;51.414;0.018;2022-07-29T07:50:26;19.60;1.00
42187;DHT22;27858;51.414;0.018;2022-07-29T07:52:55;19.70;1.00
42187;DHT22;27858;51.414;0.018;2022-07-29T07:55:26;19.80;1.00
42187;DHT22;27858;51.414;0.018;2022-07-29T07:57:53;19.70;1.00
42187;DHT22;27858;51.414;0.018;2022-07-29T08:00:21;19.90;99.90
42187;DHT22;27858;51.414;0.018;2022-07-29T08:02:49;20.00;99.90
42187;DHT22;27858;51.414;0.018;2022-07-29T08:05:17;20.00;99.90
42187;DHT22;27858;51.414;0.018;2022-07-29T08:07:46;20.00;99.90
42187;DHT22;27858;51.414;0.018;2022-07-29T08:10:17;19.90;99.90
42187;DHT22;27858;51.414;0.018;2022-07-29T08:13:06;20.00;99.90
42187;DHT22;27858;51.414;0.018;2022-07-29T08:15:33;20.10;99.90
42187;DHT22;27858;51.414;0.018;2022-07-29T08:17:59;20.20;99.90
42187;DHT22;27858;51.414;0.018;2022-07-29T08:20:33;20.20;99.90
42187;DHT22;27858;51.414;0.018;2022-07-29T08:23:03;20.40;99.90
42187;DHT22;27858;51.414;0.018;2022-07-29T08:25:30;20.40;99.90
42187;DHT22;27858;51.414;0.018;2022-07-29T08:28:00;20.40;99.90
42187;DHT22;27858;51.414;0.018;2022-07-29T08:30:27;20.40;99.90
42187;DHT22;27858;51.414;0.018;2022-07-29T08:32:54;20.50;99.90
42187;DHT22;27858;51.414;0.018;2022-07-29T08:35:22;20.50;99.90
42187;DHT22;27858;51.414;0.018;2022-07-29T08:37:50;20.60;99.90
42187;DHT22;27858;51.414;0.018;2022-07-29T08:40:17;20.70;99.90
42187;DHT22;27858;51.414;0.018;2022-07-29T08:42:44;20.80;99.90
42187;DHT22;27858;51.414;0.018;2022-07-29T08:45:15;20.70;99.90
42187;DHT22;27858;51.414;0.018;2022-07-29T08:47:44;20.80;99.90
42187;DHT22;27858;51.414;0.018;2022-07-29T08:50:12;20.90;99.90
42187;DHT22;27858;51.414;0.018;2022-07-29T08:52:40;20.90;99.90
42187;DHT22;27858;51.414;0.018;2022-07-29T08:55:08;21.00;99.90
42187;DHT22;27858;51.414;0.018;2022-07-29T08:57:36;20.90;99.90
42187;DHT22;27858;51.414;0.018;2022-07-29T09:00:18;21.00;99.90
42187;DHT22;27858;51.414;0.018;2022-07-29T09:02:47;21.00;99.90
42187;DHT22;27858;51.414;0.018;2022-07-29T09:05:19;21.10;99.90
42187;DHT22;27858;51.414;0.018;2022-07-29T09:07:46;21.10;99.90
42187;DHT22;27858;51.414;0.018;2022-07-29T09:10:14;21.20;99.90
42187;DHT22;27858;51.414;0.018;2022-07-29T09:12:41;21.30;99.90
42187;DHT22;27858;51.414;0.018;2022-07-29T09:15:08;21.40;99.90
42187;DHT22;27858;51.414;0.018;2022-07-29T09:17:43;21.40;99.90
42187;DHT22;27858;51.414;0.018;2022-07-29T09:20:13;21.50;99.90
42187;DHT22;27858;51.414;0.018;2022-07-29T09:22:40;21.50;99.90
42187;DHT22;27858;51.414;0.018;2022-07-29T09:25:08;21.60;99.90
42187;DHT22;27858;51.414;0.018;2022-07-29T09:27:35;21.40;99.90
42187;DHT22;27858;51.414;0.018;2022-07-29T09:30:07;21.50;99.90
42187;DHT22;27858;51.414;0.018;2022-07-29T09:32:54;21.50;99.90
42187;DHT22;27858;51.414;0.018;2022-07-29T09:35:24;21.60;99.90
42187;DHT22;27858;51.414;0.018;2022-07-29T09:37:51;21.50;99.90
42187;DHT22;27858;51.414;0.018;2022-07-29T09:40:23;21.50;99.90
42187;DHT22;27858;51.414;0.018;2022-07-29T09:42:53;21.70;99.90
42187;DHT22;27858;51.414;0.018;2022-07-29T09:45:31;21.60;99.90
42187;DHT22;27858;51.414;0.018;2022-07-29T09:47:58;21.70;99.90
42187;DHT22;27858;51.414;0.018;2022-07-29T09:50:39;21.80;99.90
42187;DHT22;27858;51.414;0.018;2022-07-29T09:53:07;21.80;99.90
42187;DHT22;27858;51.414;0.018;2022-07-29T09:55:49;22.00;99.90
42187;DHT22;27858;51.414;0.018;2022-07-29T09:58:19;22.10;99.90
42187;DHT22;27858;51.414;0.018;2022-07-29T10:00:48;22.20;99.90
42187;DHT22;27858;51.414;0.018;2022-07-29T10:03:16;22.20;99.90
42187;DHT22;27858;51.414;0.018;2022-07-29T10:05:45;22.00;99.90
42187;DHT22;27858;51.414;0.018;2022-07-29T10:08:12;22.20;99.90
42187;DHT22;27858;51.414;0.018;2022-07-29T10:10:42;22.30;99.90
42187;DHT22;27858;51.414;0.018;2022-07-29T10:13:11;22.60;99.90
42187;DHT22;27858;51.414;0.018;2022-07-29T10:15:43;22.60;99.90
42187;DHT22;27858;51.414;0.018;2022-07-29T10:18:14;22.50;99.90
42187;DHT22;27858;51.414;0.018;2022-07-29T10:20:44;22.60;99.90
42187;DHT22;27858;51.414;0.018;2022-07-29T10:23:11;22.60;99.90
42187;DHT22;27858;51.414;0.018;2022-07-29T10:25:39;22.60;99.90
42187;DHT22;27858;51.414;0.018;2022-07-29T10:28:12;22.60;99.90
42187;DHT22;27858;51.414;0.018;2022-07-29T10:30:43;22.50;99.90
42187;DHT22;27858;51.414;0.018;2022-07-29T10:44:05;23.10;99.90
42187;DHT22;27858;51.414;0.018;2022-07-29T10:46:37;23.10;99.90
42187;DHT22;27858;51.414;0.018;2022-07-29T10:49:12;23.20;99.90
42187;DHT22;27858;51.414;0.018;2022-07-29T10:54:17;23.30;99.90
42187;DHT22;27858;51.414;0.018;2022-07-29T10:56:45;23.20;99.90
42187;DHT22;27858;51.414;0.018;2022-07-29T11:01:48;23.50;99.90
42187;DHT22;27858;51.414;0.018;2022-07-29T11:07:14;23.60;99.90
42187;DHT22;27858;51.414;0.018;2022-07-29T11:09:43;23.80;99.90
42187;DHT22;27858;51.414;0.018;2022-07-29T11:15:07;23.50;99.90
42187;DHT22;27858;51.414;0.018;2022-07-29T11:25:44;24.30;99.90
42187;DHT22;27858;51.414;0.018;2022-07-29T11:28:20;24.30;99.90
42187;DHT22;27858;51.414;0.018;2022-07-29T11:30:52;24.30;99.90
42187;DHT22;27858;51.414;0.018;2022-07-29T11:33:46;24.40;99.90
42187;DHT22;27858;51.414;0.018;2022-07-29T11:36:33;24.40;99.90
42187;DHT22;27858;51.414;0.018;2022-07-29T11:39:25;24.50;99.90
42187;DHT22;27858;51.414;0.018;2022-07-29T11:45:21;24.50;99.90
42187;DHT22;27858;51.414;0.018;2022-07-29T11:48:15;24.30;99.90
42187;DHT22;27858;51.414;0.018;2022-07-29T11:50:58;24.40;99.90
42187;DHT22;27858;51.414;0.018;2022-07-29T11:53:25;24.60;99.90
42187;DHT22;27858;51.414;0.018;2022-07-29T11:55:58;24.50;99.90
42187;DHT22;27858;51.414;0.018;2022-07-29T11:58:25;24.30;99.90
42187;DHT22;27858;51.414;0.018;2022-07-29T12:00:53;24.20;99.90
42187;DHT22;27858;51.414;0.018;2022-07-29T12:03:26;24.30;99.90
42187;DHT22;27858;51.414;0.018;2022-07-29T12:06:01;24.30;99.90
42187;DHT22;27858;51.414;0.018;2022-07-29T12:08:28;24.60;99.90
42187;DHT22;27858;51.414;0.018;2022-07-29T12:10:56;24.70;99.90
42187;DHT22;27858;51.414;0.018;2022-07-29T12:13:22;24.90;99.90
42187;DHT22;27858;51.414;0.018;2022-07-29T12:16:03;25.00;99.90
42187;DHT22;27858;51.414;0.018;2022-07-29T12:18:31;24.90;99.90
42187;DHT22;27858;51.414;0.018;2022-07-29T12:20:59;25.00;99.90
42187;DHT22;27858;51.414;0.018;2022-07-29T12:23:30;25.10;99.90
42187;DHT22;27858;51.414;0.018;2022-07-29T12:26:04;25.00;99.90
42187;DHT22;27858;51.414;0.018;2022-07-29T12:28:39;24.90;99.90
42187;DHT22;27858;51.414;0.018;2022-07-29T12:31:11;24.90;99.90
42187;DHT22;27858;51.414;0.018;2022-07-29T12:33:39;24.70;99.90
42187;DHT22;27858;51.414;0.018;2022-07-29T12:36:06;24.60;99.90
42187;DHT22;27858;51.414;0.018;2022-07-29T12:38:40;24.50;99.90
42187;DHT22;27858;51.414;0.018;2022-07-29T12:41:08;24.60;99.90
42187;DHT22;27858;51.414;0.018;2022-07-29T12:43:35;25.00;99.90
42187;DHT22;27858;51.414;0.018;2022-07-29T12:46:13;25.30;99.90
42187;DHT22;27858;51.414;0.018;2022-07-29T12:48:43;25.60;99.90
42187;DHT22;27858;51.414;0.018;2022-07-29T12:51:11;25.80;99.90
42187;DHT22;27858;51.414;0.018;2022-07-29T12:53:39;26.20;99.90
42187;DHT22;27858;51.414;0.018;2022-07-29T12:56:06;26.00;99.90
42187;DHT22;27858;51.414;0.018;2022-07-29T12:59:18;26.00;99.90
42187;DHT22;27858;51.414;0.018;2022-07-29T13:01:47;25.70;99.90
42187;DHT22;27858;51.414;0.018;2022-07-29T13:04:44;26.20;99.90
42187;DHT22;27858;51.414;0.018;2022-07-29T13:07:24;26.30;99.90
42187;DHT22;27858;51.414;0.018;2022-07-29T13:10:15;26.20;99.90
42187;DHT22;27858;51.414;0.018;2022-07-29T13:13:06;26.30;99.90
42187;DHT22;27858;51.414;0.018;2022-07-29T13:15:36;26.20;99.90
42187;DHT22;27858;51.414;0.018;2022-07-29T13:18:04;26.20;99.90
42187;DHT22;27858;51.414;0.018;2022-07-29T13:20:31;26.50;99.90
42187;DHT22;27858;51.414;0.018;2022-07-29T13:23:00;26.80;99.90
42187;DHT22;27858;51.414;0.018;2022-07-29T13:25:30;27.20;99.90
42187;DHT22;27858;51.414;0.018;2022-07-29T13:27:58;27.70;99.90
42187;DHT22;27858;51.414;0.018;2022-07-29T13:30:25;27.90;99.90
42187;DHT22;27858;51.414;0.018;2022-07-29T13:32:52;28.30;99.90
42187;DHT22;27858;51.414;0.018;2022-07-29T13:35:20;28.40;99.90
42187;DHT22;27858;51.414;0.018;2022-07-29T13:37:47;28.20;99.90
42187;DHT22;27858;51.414;0.018;2022-07-29T13:40:17;27.60;99.90
42187;DHT22;27858;51.414;0.018;2022-07-29T13:42:44;27.80;99.90
42187;DHT22;27858;51.414;0.018;2022-07-29T13:45:12;28.40;99.90
42187;DHT22;27858;51.414;0.018;2022-07-29T13:47:39;28.30;99.90
42187;DHT22;27858;51.414;0.018;2022-07-29T13:50:12;29.20;99.90
42187;DHT22;27858;51.414;0.018;2022-07-29T13:52:39;29.70;99.90
42187;DHT22;27858;51.414;0.018;2022-07-29T13:55:07;30.00;99.90
42187;DHT22;27858;51.414;0.018;2022-07-29T13:57:34;30.50;99.90
42187;DHT22;27858;51.414;0.018;2022-07-29T14:00:02;30.60;99.90
42187;DHT22;27858;51.414;0.018;2022-07-29T14:02:29;30.10;99.90
42187;DHT22;27858;51.414;0.018;2022-07-29T14:04:55;30.10;99.90
42187;DHT22;27858;51.414;0.018;2022-07-29T14:07:22;30.40;99.90
42187;DHT22;27858;51.414;0.018;2022-07-29T14:09:49;30.10;99.90
42187;DHT22;27858;51.414;0.018;2022-07-29T14:12:16;29.30;99.90
42187;DHT22;27858;51.414;0.018;2022-07-29T14:14:43;29.00;99.90
42187;DHT22;27858;51.414;0.018;2022-07-29T14:17:13;29.20;99.90
42187;DHT22;27858;51.414;0.018;2022-07-29T14:19:40;28.60;99.90
42187;DHT22;27858;51.414;0.018;2022-07-29T14:22:08;28.40;99.90
42187;DHT22;27858;51.414;0.018;2022-07-29T14:24:36;28.10;99.90
42187;DHT22;27858;51.414;0.018;2022-07-29T14:27:05;28.50;99.90
42187;DHT22;27858;51.414;0.018;2022-07-29T14:29:33;28.50;99.90
42187;DHT22;27858;51.414;0.018;2022-07-29T14:32:05;28.50;99.90
42187;DHT22;27858;51.414;0.018;2022-07-29T14:34:33;28.80;99.90
42187;DHT22;27858;51.414;0.018;2022-07-29T14:37:00;29.30;99.90
42187;DHT22;27858;51.414;0.018;2022-07-29T14:39:27;29.90;99.90
42187;DHT22;27858;51.414;0.018;2022-07-29T14:41:57;30.00;99.90
42187;DHT22;27858;51.414;0.018;2022-07-29T14:44:25;29.60;99.90
42187;DHT22;27858;51.414;0.018;2022-07-29T14:46:58;29.60;99.90
42187;DHT22;27858;51.414;0.018;2022-07-29T14:49:27;29.60;99.90
42187;DHT22;27858;51.414;0.018;2022-07-29T14:51:53;29.60;99.90
42187;DHT22;27858;51.414;0.018;2022-07-29T14:54:21;30.30;99.90
42187;DHT22;27858;51.414;0.018;2022-07-29T14:56:47;29.80;99.90
42187;DHT22;27858;51.414;0.018;2022-07-29T14:59:17;29.80;99.90
42187;DHT22;27858;51.414;0.018;2022-07-29T15:01:44;29.50;99.90
42187;DHT22;27858;51.414;0.018;2022-07-29T15:04:10;29.10;99.90
42187;DHT22;27858;51.414;0.018;2022-07-29T15:06:37;28.20;99.90
42187;DHT22;27858;51.414;0.018;2022-07-29T15:09:04;28.00;99.90
42187;DHT22;27858;51.414;0.018;2022-07-29T15:11:32;28.20;99.90
42187;DHT22;27858;51.414;0.018;2022-07-29T15:14:04;28.30;99.90
42187;DHT22;27858;51.414;0.018;2022-07-29T15:16:32;28.60;99.90
42187;DHT22;27858;51.414;0.018;2022-07-29T15:19:00;29.00;99.90
42187;DHT22;27858;51.414;0.018;2022-07-29T15:21:27;30.00;99.90
42187;DHT22;27858;51.414;0.018;2022-07-29T15:23:54;30.70;99.90
42187;DHT22;27858;51.414;0.018;2022-07-29T15:26:21;30.80;99.90
42187;DHT22;27858;51.414;0.018;2022-07-29T15:28:48;30.60;99.90
42187;DHT22;27858;51.414;0.018;2022-07-29T15:31:14;30.30;99.90
42187;DHT22;27858;51.414;0.018;2022-07-29T15:33:41;30.60;99.90
42187;DHT22;27858;51.414;0.018;2022-07-29T15:36:08;31.30;99.90
42187;DHT22;27858;51.414;0.018;2022-07-29T15:38:35;32.20;99.90
42187;DHT22;27858;51.414;0.018;2022-07-29T15:41:07;32.00;99.90
42187;DHT22;27858;51.414;0.018;2022-07-29T15:43:34;30.50;99.90
42187;DHT22;27858;51.414;0.018;2022-07-29T15:46:01;29.90;99.90
42187;DHT22;27858;51.414;0.018;2022-07-29T15:48:47;30.60;99.90
42187;DHT22;27858;51.414;0.018;2022-07-29T15:51:14;30.70;99.90
42187;DHT22;27858;51.414;0.018;2022-07-29T15:53:40;30.60;99.90
42187;DHT22;27858;51.414;0.018;2022-07-29T15:56:07;29.70;99.90
42187;DHT22;27858;51.414;0.018;2022-07-29T15:58:34;29.50;99.90
42187;DHT22;27858;51.414;0.018;2022-07-29T16:01:01;29.00;99.90
42187;DHT22;27858;51.414;0.018;2022-07-29T16:03:28;28.50;99.90
42187;DHT22;27858;51.414;0.018;2022-07-29T16:05:55;28.10;99.90
42187;DHT22;27858;51.414;0.018;2022-07-29T16:08:22;27.90;99.90
42187;DHT22;27858;51.414;0.018;2022-07-29T16:10:49;28.10;99.90
42187;DHT22;27858;51.414;0.018;2022-07-29T16:13:16;27.80;99.90
42187;DHT22;27858;51.414;0.018;2022-07-29T16:15:46;27.60;99.90
42187;DHT22;27858;51.414;0.018;2022-07-29T16:18:28;27.40;99.90
42187;DHT22;27858;51.414;0.018;2022-07-29T16:20:56;27.70;99.90
42187;DHT22;27858;51.414;0.018;2022-07-29T16:23:23;27.60;99.90
42187;DHT22;27858;51.414;0.018;2022-07-29T16:25:50;27.50;99.90
42187;DHT22;27858;51.414;0.018;2022-07-29T16:28:26;27.50;99.90
42187;DHT22;27858;51.414;0.018;2022-07-29T16:30:53;27.60;99.90
42187;DHT22;27858;51.414;0.018;2022-07-29T16:33:19;27.80;99.90
42187;DHT22;27858;51.414;0.018;2022-07-29T16:35:46;28.10;99.90